sensor_id;sensor_type;location;lat;lon;timestamp;temperature;humidity
7686;DHT22;3885;51.474;-2.576;2023-02-28T00:01:20;1.60;99.90
7686;DHT22;3885;51.474;-2.576;2023-02-28T00:03:47;1.60;99.90
7686;DHT22;3885;51.474;-2.576;2023-02-28T00:06:16;1.50;99.90
7686;DHT22;3885;51.474;-2.576;2023-02-28T00:08:43;1.40;99.90
7686;DHT22;3885;51.474;-2.576;2023-02-28T00:11:12;1.40;99.90
7686;DHT22;3885;51.474;-2.576;2023-02-28T00:13:41;1.30;99.90
7686;DHT22;3885;51.474;-2.576;2023-02-28T00:16:12;1.30;99.90
7686;DHT22;3885;51.474;-2.576;2023-02-28T00:18:40;1.20;99.90
7686;DHT22;3885;51.474;-2.576;2023-02-28T00:23:36;1.10;99.90
7686;DHT22;3885;51.474;-2.576;2023-02-28T00:28:31;1.10;99.90
7686;DHT22;3885;51.474;-2.576;2023-02-28T00:30:58;1.00;99.90
7686;DHT22;3885;51.474;-2.576;2023-02-28T00:33:25;1.00;99.90
7686;DHT22;3885;51.474;-2.576;2023-02-28T00:36:01;1.00;99.90
7686;DHT22;3885;51.474;-2.576;2023-02-28T00:38:28;0.90;99.90
7686;DHT22;3885;51.474;-2.576;2023-02-28T00:40:57;0.90;99.90
7686;DHT22;3885;51.474;-2.576;2023-02-28T00:43:30;0.80;99.90
7686;DHT22;3885;51.474;-2.576;2023-02-28T00:45:57;0.80;99.90
7686;DHT22;3885;51.474;-2.576;2023-02-28T00:50:51;0.70;99.90
7686;DHT22;3885;51.474;-2.576;2023-02-28T00:53:18;0.70;99.90
7686;DHT22;3885;51.474;-2.576;2023-02-28T00:58:13;0.70;99.90
7686;DHT22;3885;51.474;-2.576;2023-02-28T01:00:40;0.70;99.90
7686;DHT22;3885;51.474;-2.576;2023-02-28T01:03:07;0.70;99.90
7686;DHT22;3885;51.474;-2.576;2023-02-28T01:05:34;0.70;99.90
7686;DHT22;3885;51.474;-2.576;2023-02-28T01:08:01;0.70;99.90
7686;DHT22;3885;51.474;-2.576;2023-02-28T01:10:28;0.70;99.90
7686;DHT22;3885;51.474;-2.576;2023-02-28T01:12:56;0.70;99.90
7686;DHT22;3885;51.474;-2.576;2023-02-28T01:15:25;0.80;99.90
7686;DHT22;3885;51.474;-2.576;2023-02-28T01:17:52;0.80;99.90
7686;DHT22;3885;51.474;-2.576;2023-02-28T01:20:19;0.80;99.90
7686;DHT22;3885;51.474;-2.576;2023-02-28T01:22:46;0.90;99.90
7686;DHT22;3885;51.474;-2.576;2023-02-28T01:25:13;0.90;99.90
7686;DHT22;3885;51.474;-2.576;2023-02-28T01:27:40;1.00;99.90
7686;DHT22;3885;51.474;-2.576;2023-02-28T01:30:08;1.00;99.90
7686;DHT22;3885;51.474;-2.576;2023-02-28T01:32:37;1.00;99.90
7686;DHT22;3885;51.474;-2.576;2023-02-28T01:37:31;0.90;99.90
7686;DHT22;3885;51.474;-2.576;2023-02-28T01:39:58;0.90;99.90
7686;DHT22;3885;51.474;-2.576;2023-02-28T01:42:25;0.80;99.90
7686;DHT22;3885;51.474;-2.576;2023-02-28T01:45:01;0.80;99.90
7686;DHT22;3885;51.474;-2.576;2023-02-28T01:49:59;0.80;99.90
7686;DHT22;3885;51.474;-2.576;2023-02-28T01:52:28;0.70;99.90
7686;DHT22;3885;51.474;-2.576;2023-02-28T01:54:56;0.60;99.90
7686;DHT22;3885;51.474;-2.576;2023-02-28T01:59:58;0.60;99.90
7686;DHT22;3885;51.474;-2.576;2023-02-28T02:02:28;0.60;99.90
7686;DHT22;3885;51.474;-2.576;2023-02-28T02:04:57;0.60;99.90
7686;DHT22;3885;51.474;-2.576;2023-02-28T02:07:30;0.60;99.90
7686;DHT22;3885;51.474;-2.576;2023-02-28T02:10:04;0.60;99.90
7686;DHT22;3885;51.474;-2.576;2023-02-28T02:12:43;0.60;99.90
7686;DHT22;3885;51.474;-2.576;2023-02-28T02:15:17;0.60;99.90
7686;DHT22;3885;51.474;-2.576;2023-02-28T02:17:51;0.70;99.90
7686;DHT22;3885;51.474;-2.576;2023-02-28T02:23:32;0.70;99.90
7686;DHT22;3885;51.474;-2.576;2023-02-28T02:26:11;0.70;99.90
7686;DHT22;3885;51.474;-2.576;2023-02-28T02:29:12;0.70;99.90
7686;DHT22;3885;51.474;-2.576;2023-02-28T02:32:09;0.60;99.90
7686;DHT22;3885;51.474;-2.576;2023-02-28T02:34:52;0.60;99.90
7686;DHT22;3885;51.474;-2.576;2023-02-28T02:37:33;0.70;99.90
7686;DHT22;3885;51.474;-2.576;2023-02-28T02:40:10;0.70;99.90
7686;DHT22;3885;51.474;-2.576;2023-02-28T02:42:43;0.70;99.90
7686;DHT22;3885;51.474;-2.576;2023-02-28T02:45:14;0.70;99.90
7686;DHT22;3885;51.474;-2.576;2023-02-28T02:47:43;0.70;99.90
7686;DHT22;3885;51.474;-2.576;2023-02-28T02:50:15;0.70;99.90
7686;DHT22;3885;51.474;-2.576;2023-02-28T02:52:47;0.60;99.90
7686;DHT22;3885;51.474;-2.576;2023-02-28T02:55:17;0.60;99.90
7686;DHT22;3885;51.474;-2.576;2023-02-28T02:57:47;0.60;99.90
7686;DHT22;3885;51.474;-2.576;2023-02-28T03:00:17;0.50;99.90
7686;DHT22;3885;51.474;-2.576;2023-02-28T03:05:19;0.50;99.90
7686;DHT22;3885;51.474;-2.576;2023-02-28T03:07:48;0.50;99.90
7686;DHT22;3885;51.474;-2.576;2023-02-28T03:10:34;0.50;99.90
7686;DHT22;3885;51.474;-2.576;2023-02-28T03:13:17;0.50;99.90
7686;DHT22;3885;51.474;-2.576;2023-02-28T03:16:01;0.50;99.90
7686;DHT22;3885;51.474;-2.576;2023-02-28T03:18:39;0.60;99.90
7686;DHT22;3885;51.474;-2.576;2023-02-28T03:21:14;0.60;99.90
7686;DHT22;3885;51.474;-2.576;2023-02-28T03:23:48;0.70;99.90
7686;DHT22;3885;51.474;-2.576;2023-02-28T03:26:20;0.80;99.90
7686;DHT22;3885;51.474;-2.576;2023-02-28T03:28:53;0.80;99.90
7686;DHT22;3885;51.474;-2.576;2023-02-28T03:31:27;0.80;99.90
7686;DHT22;3885;51.474;-2.576;2023-02-28T03:34:00;1.00;99.90
7686;DHT22;3885;51.474;-2.576;2023-02-28T03:36:31;1.10;99.90
7686;DHT22;3885;51.474;-2.576;2023-02-28T03:41:35;1.20;99.90
7686;DHT22;3885;51.474;-2.576;2023-02-28T03:44:07;1.30;99.90
7686;DHT22;3885;51.474;-2.576;2023-02-28T03:46:44;1.30;99.90
7686;DHT22;3885;51.474;-2.576;2023-02-28T03:49:15;1.30;99.90
7686;DHT22;3885;51.474;-2.576;2023-02-28T03:51:46;1.30;99.90
7686;DHT22;3885;51.474;-2.576;2023-02-28T03:56:47;1.40;99.90
7686;DHT22;3885;51.474;-2.576;2023-02-28T03:59:20;1.50;99.90
7686;DHT22;3885;51.474;-2.576;2023-02-28T04:04:17;1.60;99.90
7686;DHT22;3885;51.474;-2.576;2023-02-28T04:06:46;1.60;99.90
7686;DHT22;3885;51.474;-2.576;2023-02-28T04:09:15;1.70;99.90
7686;DHT22;3885;51.474;-2.576;2023-02-28T04:11:44;1.70;99.90
7686;DHT22;3885;51.474;-2.576;2023-02-28T04:16:41;1.80;99.90
7686;DHT22;3885;51.474;-2.576;2023-02-28T04:19:09;1.90;99.90
7686;DHT22;3885;51.474;-2.576;2023-02-28T04:21:37;1.90;99.90
7686;DHT22;3885;51.474;-2.576;2023-02-28T04:26:35;2.00;99.90
7686;DHT22;3885;51.474;-2.576;2023-02-28T04:31:30;2.00;99.90
7686;DHT22;3885;51.474;-2.576;2023-02-28T04:33:57;2.10;99.90
7686;DHT22;3885;51.474;-2.576;2023-02-28T04:36:24;2.10;99.90
7686;DHT22;3885;51.474;-2.576;2023-02-28T04:41:20;2.20;99.90
7686;DHT22;3885;51.474;-2.576;2023-02-28T04:43:48;2.20;99.90
7686;DHT22;3885;51.474;-2.576;2023-02-28T04:51:13;2.30;99.90
7686;DHT22;3885;51.474;-2.576;2023-02-28T04:56:11;2.30;99.90
7686;DHT22;3885;51.474;-2.576;2023-02-28T04:58:40;2.40;99.90
7686;DHT22;3885;51.474;-2.576;2023-02-28T05:01:17;2.40;99.90
7686;DHT22;3885;51.474;-2.576;2023-02-28T05:03:44;2.50;99.90
7686;DHT22;3885;51.474;-2.576;2023-02-28T05:06:12;2.50;99.90
7686;DHT22;3885;51.474;-2.576;2023-02-28T05:08:39;2.50;99.90
7686;DHT22;3885;51.474;-2.576;2023-02-28T05:11:12;2.50;99.90
7686;DHT22;3885;51.474;-2.576;2023-02-28T05:13:41;2.60;99.90
7686;DHT22;3885;51.474;-2.576;2023-02-28T05:16:08;2.70;99.90
7686;DHT22;3885;51.474;-2.576;2023-02-28T05:18:35;2.70;99.90
7686;DHT22;3885;51.474;-2.576;2023-02-28T05:21:02;2.70;99.90
7686;DHT22;3885;51.474;-2.576;2023-02-28T05:23:30;2.70;99.90
7686;DHT22;3885;51.474;-2.576;2023-02-28T05:25:57;2.70;99.90
7686;DHT22;3885;51.474;-2.576;2023-02-28T05:28:24;2.70;99.90
7686;DHT22;3885;51.474;-2.576;2023-02-28T05:30:52;2.80;99.90
7686;DHT22;3885;51.474;-2.576;2023-02-28T05:33:19;2.80;99.90
7686;DHT22;3885;51.474;-2.576;2023-02-28T05:40:40;2.80;99.90
7686;DHT22;3885;51.474;-2.576;2023-02-28T05:43:10;2.70;99.90
7686;DHT22;3885;51.474;-2.576;2023-02-28T05:48:06;2.80;99.90
7686;DHT22;3885;51.474;-2.576;2023-02-28T05:50:33;2.90;99.90
7686;DHT22;3885;51.474;-2.576;2023-02-28T05:52:59;2.80;99.90
7686;DHT22;3885;51.474;-2.576;2023-02-28T05:55:26;2.80;99.90
7686;DHT22;3885;51.474;-2.576;2023-02-28T05:57:53;2.80;99.90
7686;DHT22;3885;51.474;-2.576;2023-02-28T06:00:22;2.70;99.90
7686;DHT22;3885;51.474;-2.576;2023-02-28T06:02:49;2.70;99.90
7686;DHT22;3885;51.474;-2.576;2023-02-28T06:05:19;2.60;99.90
7686;DHT22;3885;51.474;-2.576;2023-02-28T06:07:46;2.60;99.90
7686;DHT22;3885;51.474;-2.576;2023-02-28T06:12:41;2.60;99.90
7686;DHT22;3885;51.474;-2.576;2023-02-28T06:15:12;2.60;99.90
7686;DHT22;3885;51.474;-2.576;2023-02-28T06:17:40;2.50;99.90
7686;DHT22;3885;51.474;-2.576;2023-02-28T06:20:08;2.40;99.90
7686;DHT22;3885;51.474;-2.576;2023-02-28T06:22:37;2.30;99.90
7686;DHT22;3885;51.474;-2.576;2023-02-28T06:25:05;2.30;99.90
7686;DHT22;3885;51.474;-2.576;2023-02-28T06:27:32;2.20;99.90
7686;DHT22;3885;51.474;-2.576;2023-02-28T06:30:00;2.20;99.90
7686;DHT22;3885;51.474;-2.576;2023-02-28T06:32:27;2.10;99.90
7686;DHT22;3885;51.474;-2.576;2023-02-28T06:34:54;2.00;99.90
7686;DHT22;3885;51.474;-2.576;2023-02-28T06:37:22;2.00;99.90
7686;DHT22;3885;51.474;-2.576;2023-02-28T06:39:54;2.00;99.90
7686;DHT22;3885;51.474;-2.576;2023-02-28T06:42:22;1.90;99.90
7686;DHT22;3885;51.474;-2.576;2023-02-28T06:44:50;1.90;99.90
7686;DHT22;3885;51.474;-2.576;2023-02-28T06:47:17;1.90;99.90
7686;DHT22;3885;51.474;-2.576;2023-02-28T06:52:11;1.80;99.90
7686;DHT22;3885;51.474;-2.576;2023-02-28T06:54:38;1.80;99.90
7686;DHT22;3885;51.474;-2.576;2023-02-28T06:57:07;1.90;99.90
7686;DHT22;3885;51.474;-2.576;2023-02-28T06:59:34;1.90;99.90
7686;DHT22;3885;51.474;-2.576;2023-02-28T07:04:29;1.90;99.90
7686;DHT22;3885;51.474;-2.576;2023-02-28T07:06:56;2.00;99.90
7686;DHT22;3885;51.474;-2.576;2023-02-28T07:11:55;2.10;99.90
7686;DHT22;3885;51.474;-2.576;2023-02-28T07:16:50;2.20;99.90
7686;DHT22;3885;51.474;-2.576;2023-02-28T07:19:17;2.30;99.90
7686;DHT22;3885;51.474;-2.576;2023-02-28T07:29:08;2.60;99.90
7686;DHT22;3885;51.474;-2.576;2023-02-28T07:34:04;2.70;99.90
7686;DHT22;3885;51.474;-2.576;2023-02-28T07:41:26;3.00;99.90
7686;DHT22;3885;51.474;-2.576;2023-02-28T07:43:55;3.20;99.90
7686;DHT22;3885;51.474;-2.576;2023-02-28T07:46:23;3.30;99.90
7686;DHT22;3885;51.474;-2.576;2023-02-28T07:48:51;3.40;99.90
7686;DHT22;3885;51.474;-2.576;2023-02-28T07:51:19;3.50;99.90
7686;DHT22;3885;51.474;-2.576;2023-02-28T07:53:46;3.60;99.90
7686;DHT22;3885;51.474;-2.576;2023-02-28T07:58:40;3.80;99.90
7686;DHT22;3885;51.474;-2.576;2023-02-28T08:03:36;4.00;99.90
7686;DHT22;3885;51.474;-2.576;2023-02-28T08:06:05;4.10;99.90
7686;DHT22;3885;51.474;-2.576;2023-02-28T08:11:00;4.30;99.90
7686;DHT22;3885;51.474;-2.576;2023-02-28T08:13:28;4.30;99.90
7686;DHT22;3885;51.474;-2.576;2023-02-28T08:18:23;4.60;99.90
7686;DHT22;3885;51.474;-2.576;2023-02-28T08:35:42;5.20;99.90
7686;DHT22;3885;51.474;-2.576;2023-02-28T08:40:37;5.20;99.90
7686;DHT22;3885;51.474;-2.576;2023-02-28T09:05:11;5.80;99.90
7686;DHT22;3885;51.474;-2.576;2023-02-28T09:10:05;5.90;99.90
7686;DHT22;3885;51.474;-2.576;2023-02-28T09:19:57;6.00;99.90
7686;DHT22;3885;51.474;-2.576;2023-02-28T09:27:19;5.80;99.90
7686;DHT22;3885;51.474;-2.576;2023-02-28T09:37:10;6.00;99.90
7686;DHT22;3885;51.474;-2.576;2023-02-28T09:52:09;6.10;99.90
7686;DHT22;3885;51.474;-2.576;2023-02-28T09:54:37;6.20;99.90
7686;DHT22;3885;51.474;-2.576;2023-02-28T09:57:07;6.10;99.90
7686;DHT22;3885;51.474;-2.576;2023-02-28T10:05:20;6.20;99.90
7686;DHT22;3885;51.474;-2.576;2023-02-28T10:07:58;6.30;99.90
7686;DHT22;3885;51.474;-2.576;2023-02-28T10:10:34;6.20;99.90
7686;DHT22;3885;51.474;-2.576;2023-02-28T10:15:34;6.30;99.90
7686;DHT22;3885;51.474;-2.576;2023-02-28T10:18:04;6.30;99.90
7686;DHT22;3885;51.474;-2.576;2023-02-28T10:23:07;6.60;99.90
7686;DHT22;3885;51.474;-2.576;2023-02-28T10:25:37;6.70;99.90
7686;DHT22;3885;51.474;-2.576;2023-02-28T10:35:45;7.10;99.90
7686;DHT22;3885;51.474;-2.576;2023-02-28T10:38:16;7.00;99.90
7686;DHT22;3885;51.474;-2.576;2023-02-28T10:40:44;7.10;99.90
7686;DHT22;3885;51.474;-2.576;2023-02-28T10:43:20;7.10;99.90
7686;DHT22;3885;51.474;-2.576;2023-02-28T10:45:58;7.20;99.90
7686;DHT22;3885;51.474;-2.576;2023-02-28T10:48:37;7.30;99.90
7686;DHT22;3885;51.474;-2.576;2023-02-28T10:51:07;7.20;99.90
7686;DHT22;3885;51.474;-2.576;2023-02-28T10:53:45;7.30;99.90
7686;DHT22;3885;51.474;-2.576;2023-02-28T10:56:17;7.30;99.90
7686;DHT22;3885;51.474;-2.576;2023-02-28T10:58:50;7.40;99.90
7686;DHT22;3885;51.474;-2.576;2023-02-28T11:01:19;7.30;99.90
7686;DHT22;3885;51.474;-2.576;2023-02-28T11:03:46;7.40;99.90
7686;DHT22;3885;51.474;-2.576;2023-02-28T11:06:17;7.50;99.90
7686;DHT22;3885;51.474;-2.576;2023-02-28T11:08:48;7.50;99.90
7686;DHT22;3885;51.474;-2.576;2023-02-28T11:11:16;7.50;99.90
7686;DHT22;3885;51.474;-2.576;2023-02-28T11:13:44;7.60;99.90
7686;DHT22;3885;51.474;-2.576;2023-02-28T11:16:13;7.60;99.90
7686;DHT22;3885;51.474;-2.576;2023-02-28T11:18:44;7.70;99.90
7686;DHT22;3885;51.474;-2.576;2023-02-28T11:21:20;7.70;99.90
7686;DHT22;3885;51.474;-2.576;2023-02-28T11:29:03;7.30;99.90
7686;DHT22;3885;51.474;-2.576;2023-02-28T11:31:35;7.30;99.90
7686;DHT22;3885;51.474;-2.576;2023-02-28T11:36:51;7.30;99.90
7686;DHT22;3885;51.474;-2.576;2023-02-28T11:42:01;7.30;99.90
7686;DHT22;3885;51.474;-2.576;2023-02-28T11:52:20;7.70;99.90
7686;DHT22;3885;51.474;-2.576;2023-02-28T11:55:02;7.80;99.90
7686;DHT22;3885;51.474;-2.576;2023-02-28T11:57:56;8.10;99.90
7686;DHT22;3885;51.474;-2.576;2023-02-28T12:05:45;8.20;99.90
7686;DHT22;3885;51.474;-2.576;2023-02-28T12:08:26;8.10;99.90
7686;DHT22;3885;51.474;-2.576;2023-02-28T12:11:07;8.00;99.90
7686;DHT22;3885;51.474;-2.576;2023-02-28T12:16:24;8.10;99.90
7686;DHT22;3885;51.474;-2.576;2023-02-28T12:19:04;8.10;99.90
7686;DHT22;3885;51.474;-2.576;2023-02-28T12:21:44;8.20;99.90
7686;DHT22;3885;51.474;-2.576;2023-02-28T12:27:19;8.10;99.90
7686;DHT22;3885;51.474;-2.576;2023-02-28T12:29:50;8.10;99.90
7686;DHT22;3885;51.474;-2.576;2023-02-28T12:32:23;8.30;99.90
7686;DHT22;3885;51.474;-2.576;2023-02-28T12:37:24;8.40;99.90
7686;DHT22;3885;51.474;-2.576;2023-02-28T12:39:58;8.40;99.90
7686;DHT22;3885;51.474;-2.576;2023-02-28T12:42:29;8.40;99.90
7686;DHT22;3885;51.474;-2.576;2023-02-28T12:47:25;8.40;99.90
7686;DHT22;3885;51.474;-2.576;2023-02-28T12:49:55;8.40;99.90
7686;DHT22;3885;51.474;-2.576;2023-02-28T12:52:28;8.50;99.90
7686;DHT22;3885;51.474;-2.576;2023-02-28T12:55:04;8.10;99.90
7686;DHT22;3885;51.474;-2.576;2023-02-28T12:57:36;8.20;99.90
7686;DHT22;3885;51.474;-2.576;2023-02-28T13:02:57;8.10;99.90
7686;DHT22;3885;51.474;-2.576;2023-02-28T13:11:31;8.20;99.90
7686;DHT22;3885;51.474;-2.576;2023-02-28T13:14:01;8.30;99.90
7686;DHT22;3885;51.474;-2.576;2023-02-28T13:16:54;8.50;99.90
7686;DHT22;3885;51.474;-2.576;2023-02-28T13:19:22;8.60;99.90
7686;DHT22;3885;51.474;-2.576;2023-02-28T13:21:51;8.60;99.90
7686;DHT22;3885;51.474;-2.576;2023-02-28T13:24:41;8.60;99.90
7686;DHT22;3885;51.474;-2.576;2023-02-28T13:27:23;8.60;99.90
7686;DHT22;3885;51.474;-2.576;2023-02-28T13:29:52;8.60;99.90
7686;DHT22;3885;51.474;-2.576;2023-02-28T13:32:35;8.60;99.90
7686;DHT22;3885;51.474;-2.576;2023-02-28T13:35:45;8.50;99.90
7686;DHT22;3885;51.474;-2.576;2023-02-28T13:41:40;8.90;99.90
7686;DHT22;3885;51.474;-2.576;2023-02-28T14:00:22;9.10;99.90
7686;DHT22;3885;51.474;-2.576;2023-02-28T14:03:14;8.90;99.90
7686;DHT22;3885;51.474;-2.576;2023-02-28T14:08:16;8.70;99.90
7686;DHT22;3885;51.474;-2.576;2023-02-28T14:10:48;8.60;99.90
7686;DHT22;3885;51.474;-2.576;2023-02-28T14:18:34;8.60;99.90
7686;DHT22;3885;51.474;-2.576;2023-02-28T14:21:09;8.60;99.90
7686;DHT22;3885;51.474;-2.576;2023-02-28T14:23:53;8.70;99.90
7686;DHT22;3885;51.474;-2.576;2023-02-28T14:29:59;8.40;99.90
7686;DHT22;3885;51.474;-2.576;2023-02-28T14:32:35;8.30;99.90
7686;DHT22;3885;51.474;-2.576;2023-02-28T14:35:16;8.30;99.90
7686;DHT22;3885;51.474;-2.576;2023-02-28T14:42:47;8.30;99.90
7686;DHT22;3885;51.474;-2.576;2023-02-28T14:45:19;8.40;99.90
7686;DHT22;3885;51.474;-2.576;2023-02-28T14:50:21;8.50;99.90
7686;DHT22;3885;51.474;-2.576;2023-02-28T14:55:23;8.20;99.90
7686;DHT22;3885;51.474;-2.576;2023-02-28T14:57:52;8.30;99.90
7686;DHT22;3885;51.474;-2.576;2023-02-28T15:00:24;8.40;99.90
7686;DHT22;3885;51.474;-2.576;2023-02-28T15:02:53;8.60;99.90
7686;DHT22;3885;51.474;-2.576;2023-02-28T15:05:26;8.70;99.90
7686;DHT22;3885;51.474;-2.576;2023-02-28T15:10:28;8.80;99.90
7686;DHT22;3885;51.474;-2.576;2023-02-28T15:12:57;8.70;99.90
7686;DHT22;3885;51.474;-2.576;2023-02-28T15:17:56;8.50;99.90
7686;DHT22;3885;51.474;-2.576;2023-02-28T15:20:26;8.60;99.90
7686;DHT22;3885;51.474;-2.576;2023-02-28T15:22:54;8.50;99.90
7686;DHT22;3885;51.474;-2.576;2023-02-28T15:40:29;8.10;99.90
7686;DHT22;3885;51.474;-2.576;2023-02-28T15:43:12;8.20;99.90
7686;DHT22;3885;51.474;-2.576;2023-02-28T15:45:45;8.40;99.90
7686;DHT22;3885;51.474;-2.576;2023-02-28T15:48:17;8.40;99.90
7686;DHT22;3885;51.474;-2.576;2023-02-28T15:50:48;8.50;99.90
7686;DHT22;3885;51.474;-2.576;2023-02-28T15:53:18;8.60;99.90
7686;DHT22;3885;51.474;-2.576;2023-02-28T15:58:19;8.70;99.90
7686;DHT22;3885;51.474;-2.576;2023-02-28T16:01:08;8.80;99.90
7686;DHT22;3885;51.474;-2.576;2023-02-28T16:09:11;8.50;99.90
7686;DHT22;3885;51.474;-2.576;2023-02-28T16:16:43;8.50;99.90
7686;DHT22;3885;51.474;-2.576;2023-02-28T16:19:11;8.60;99.90
7686;DHT22;3885;51.474;-2.576;2023-02-28T16:21:38;8.70;99.90
7686;DHT22;3885;51.474;-2.576;2023-02-28T16:24:06;8.60;99.90
7686;DHT22;3885;51.474;-2.576;2023-02-28T16:26:33;8.60;99.90
7686;DHT22;3885;51.474;-2.576;2023-02-28T16:29:03;8.60;99.90
7686;DHT22;3885;51.474;-2.576;2023-02-28T16:31:30;8.50;99.90
7686;DHT22;3885;51.474;-2.576;2023-02-28T16:36:29;8.50;99.90
7686;DHT22;3885;51.474;-2.576;2023-02-28T16:38:56;8.40;99.90
7686;DHT22;3885;51.474;-2.576;2023-02-28T16:41:25;8.40;99.90
7686;DHT22;3885;51.474;-2.576;2023-02-28T16:43:54;8.20;99.90
7686;DHT22;3885;51.474;-2.576;2023-02-28T16:46:25;8.10;99.90
7686;DHT22;3885;51.474;-2.576;2023-02-28T16:48:53;8.10;99.90
7686;DHT22;3885;51.474;-2.576;2023-02-28T16:53:49;8.10;99.90
7686;DHT22;3885;51.474;-2.576;2023-02-28T16:56:18;8.10;99.90
7686;DHT22;3885;51.474;-2.576;2023-02-28T16:58:46;8.10;99.90
7686;DHT22;3885;51.474;-2.576;2023-02-28T17:01:14;8.10;99.90
7686;DHT22;3885;51.474;-2.576;2023-02-28T17:06:17;8.10;99.90
7686;DHT22;3885;51.474;-2.576;2023-02-28T17:08:44;8.10;99.90
7686;DHT22;3885;51.474;-2.576;2023-02-28T17:11:13;8.10;99.90
7686;DHT22;3885;51.474;-2.576;2023-02-28T17:13:39;8.10;99.90
7686;DHT22;3885;51.474;-2.576;2023-02-28T17:16:13;8.10;99.90
7686;DHT22;3885;51.474;-2.576;2023-02-28T17:18:40;8.10;99.90
7686;DHT22;3885;51.474;-2.576;2023-02-28T17:21:13;8.00;99.90
7686;DHT22;3885;51.474;-2.576;2023-02-28T17:23:40;8.00;99.90
7686;DHT22;3885;51.474;-2.576;2023-02-28T17:26:13;7.90;99.90
7686;DHT22;3885;51.474;-2.576;2023-02-28T17:36:04;8.00;99.90
7686;DHT22;3885;51.474;-2.576;2023-02-28T17:38:31;7.90;99.90
7686;DHT22;3885;51.474;-2.576;2023-02-28T17:43:27;7.80;99.90
7686;DHT22;3885;51.474;-2.576;2023-02-28T17:45:54;7.80;99.90
7686;DHT22;3885;51.474;-2.576;2023-02-28T17:50:49;7.80;99.90
7686;DHT22;3885;51.474;-2.576;2023-02-28T17:55:43;7.60;99.90
7686;DHT22;3885;51.474;-2.576;2023-02-28T18:00:40;7.60;99.90
7686;DHT22;3885;51.474;-2.576;2023-02-28T18:03:07;7.60;99.90
7686;DHT22;3885;51.474;-2.576;2023-02-28T18:08:03;7.60;99.90
7686;DHT22;3885;51.474;-2.576;2023-02-28T18:20:22;7.70;99.90
7686;DHT22;3885;51.474;-2.576;2023-02-28T18:32:49;7.60;99.90
7686;DHT22;3885;51.474;-2.576;2023-02-28T18:38:00;7.60;99.90
7686;DHT22;3885;51.474;-2.576;2023-02-28T18:40:27;7.60;99.90
7686;DHT22;3885;51.474;-2.576;2023-02-28T18:50:18;7.50;99.90
7686;DHT22;3885;51.474;-2.576;2023-02-28T18:57:44;7.50;99.90
7686;DHT22;3885;51.474;-2.576;2023-02-28T19:02:39;7.40;99.90
7686;DHT22;3885;51.474;-2.576;2023-02-28T19:05:07;7.30;99.90
7686;DHT22;3885;51.474;-2.576;2023-02-28T19:07:37;7.30;99.90
7686;DHT22;3885;51.474;-2.576;2023-02-28T19:10:06;7.30;99.90
7686;DHT22;3885;51.474;-2.576;2023-02-28T19:12:34;7.20;99.90
7686;DHT22;3885;51.474;-2.576;2023-02-28T19:19:56;7.20;99.90
7686;DHT22;3885;51.474;-2.576;2023-02-28T19:22:23;7.20;99.90
7686;DHT22;3885;51.474;-2.576;2023-02-28T20:01:51;7.00;99.90
7686;DHT22;3885;51.474;-2.576;2023-02-28T20:11:43;6.90;99.90
7686;DHT22;3885;51.474;-2.576;2023-02-28T20:14:11;6.90;99.90
7686;DHT22;3885;51.474;-2.576;2023-02-28T20:16:40;6.90;99.90
7686;DHT22;3885;51.474;-2.576;2023-02-28T20:21:34;6.80;99.90
7686;DHT22;3885;51.474;-2.576;2023-02-28T20:24:01;6.90;99.90
7686;DHT22;3885;51.474;-2.576;2023-02-28T20:26:28;6.90;99.90
7686;DHT22;3885;51.474;-2.576;2023-02-28T20:33:54;6.90;99.90
7686;DHT22;3885;51.474;-2.576;2023-02-28T20:41:17;6.90;99.90
7686;DHT22;3885;51.474;-2.576;2023-02-28T20:46:12;7.00;99.90
7686;DHT22;3885;51.474;-2.576;2023-02-28T20:48:39;6.90;99.90
7686;DHT22;3885;51.474;-2.576;2023-02-28T20:51:07;6.90;99.90
7686;DHT22;3885;51.474;-2.576;2023-02-28T20:53:34;6.90;99.90
7686;DHT22;3885;51.474;-2.576;2023-02-28T20:56:03;7.00;99.90
7686;DHT22;3885;51.474;-2.576;2023-02-28T20:58:32;6.90;99.90
7686;DHT22;3885;51.474;-2.576;2023-02-28T21:01:02;6.90;99.90
7686;DHT22;3885;51.474;-2.576;2023-02-28T21:03:30;7.00;99.90
7686;DHT22;3885;51.474;-2.576;2023-02-28T21:10:56;6.90;99.90
7686;DHT22;3885;51.474;-2.576;2023-02-28T21:13:23;6.90;99.90
7686;DHT22;3885;51.474;-2.576;2023-02-28T21:18:18;7.00;99.90
7686;DHT22;3885;51.474;-2.576;2023-02-28T21:23:12;6.90;99.90
7686;DHT22;3885;51.474;-2.576;2023-02-28T21:28:08;6.90;99.90
7686;DHT22;3885;51.474;-2.576;2023-02-28T21:33:03;6.90;99.90
7686;DHT22;3885;51.474;-2.576;2023-02-28T21:35:30;7.00;99.90
7686;DHT22;3885;51.474;-2.576;2023-02-28T21:40:24;6.90;99.90
7686;DHT22;3885;51.474;-2.576;2023-02-28T21:47:48;7.00;99.90
7686;DHT22;3885;51.474;-2.576;2023-02-28T21:55:10;6.90;99.90
7686;DHT22;3885;51.474;-2.576;2023-02-28T21:57:37;6.90;99.90
7686;DHT22;3885;51.474;-2.576;2023-02-28T22:02:36;6.90;99.90
7686;DHT22;3885;51.474;-2.576;2023-02-28T22:14:52;6.90;99.90
7686;DHT22;3885;51.474;-2.576;2023-02-28T22:29:36;6.90;99.90
7686;DHT22;3885;51.474;-2.576;2023-02-28T22:32:06;6.80;99.90
7686;DHT22;3885;51.474;-2.576;2023-02-28T22:37:02;6.80;99.90
7686;DHT22;3885;51.474;-2.576;2023-02-28T22:41:56;6.80;99.90
7686;DHT22;3885;51.474;-2.576;2023-02-28T22:44:23;6.80;99.90
7686;DHT22;3885;51.474;-2.576;2023-02-28T22:46:51;6.80;99.90
7686;DHT22;3885;51.474;-2.576;2023-02-28T22:49:18;6.80;99.90
7686;DHT22;3885;51.474;-2.576;2023-02-28T22:51:47;6.90;99.90
7686;DHT22;3885;51.474;-2.576;2023-02-28T22:54:14;6.90;99.90
7686;DHT22;3885;51.474;-2.576;2023-02-28T22:59:12;6.80;99.90
7686;DHT22;3885;51.474;-2.576;2023-02-28T23:01:40;6.80;99.90
7686;DHT22;3885;51.474;-2.576;2023-02-28T23:04:09;6.80;99.90
7686;DHT22;3885;51.474;-2.576;2023-02-28T23:06:38;6.90;99.90
7686;DHT22;3885;51.474;-2.576;2023-02-28T23:21:32;6.70;99.90
7686;DHT22;3885;51.474;-2.576;2023-02-28T23:26:29;6.70;99.90
7686;DHT22;3885;51.474;-2.576;2023-02-28T23:31:24;6.70;99.90
7686;DHT22;3885;51.474;-2.576;2023-02-28T23:33:51;6.70;99.90
7686;DHT22;3885;51.474;-2.576;2023-02-28T23:36:19;6.60;99.90
7686;DHT22;3885;51.474;-2.576;2023-02-28T23:41:15;6.50;99.90
7686;DHT22;3885;51.474;-2.576;2023-02-28T23:43:44;6.50;99.90
7686;DHT22;3885;51.474;-2.576;2023-02-28T23:48:39;6.60;99.90
7686;DHT22;3885;51.474;-2.576;2023-02-28T23:51:08;6.50;99.90
